»·PEaware :: N16RD 0O2-1L1

N16RD :: 0O2-1L1

FLIGHT INFORMATION

Flight Status: Arrived
Operator: Privately registered:
United States
More flights under this callsign
Pilot: Brett B. (12105)
Aircraft: CIRRUS SR-22
(SR22)
More flights by this aircraft type
Origin: 0O2 Baker
United States
Destination: 1L1 Lincoln Co
United States
More flights between these airports :: More routes between these airports
Route:
File this flight plan on PilotEdge
Remarks:
Altitude:
(Current/Filed)
8,000ft
Speed:
(Current/Filed)
175kts
Departed: 23-May-19 04:43 PM
Arrived: 23-May-19 05:45 PM
Distance/Time
Traveled:
170nm/1:01
Distance/Time
To Go:
Arrived

Flight Plot

Page will automatically refresh every two minutes.


Map Options




Map Legend


Flown Route
Filed Route
Departure Airport
Arrival Airport
Navaid (VOR, NDB)
Fix

Horizontal Profiles

Position Reports

Time Latitude Longitude Heading Altitude Ground
Speed
23-May-19 16:40 35.290225 -116.082614 165 926ft 0kts
23-May-19 16:41 35.290225 -116.082614 165 926ft 0kts
23-May-19 16:42 35.290225 -116.082614 165 926ft 0kts
23-May-19 16:43 35.284496 -116.080733 166 985ft 90kts
23-May-19 16:44 35.288319 -116.062286 4 1843ft 125kts
23-May-19 16:45 35.321097 -116.045030 38 2567ft 133kts
23-May-19 16:46 35.350051 -116.015883 41 3269ft 135kts
23-May-19 16:47 35.378982 -115.986196 42 3995ft 137kts
23-May-19 16:47 35.403163 -115.961345 42 4562ft 136kts
23-May-19 16:49 35.437024 -115.926491 42 5379ft 136kts
23-May-19 16:49 35.461024 -115.901777 43 5946ft 136kts
23-May-19 16:51 35.495392 -115.866341 42 6846ft 138kts
23-May-19 16:52 35.524898 -115.835887 43 7640ft 139kts
23-May-19 16:52 35.549709 -115.810254 42 8305ft 140kts
23-May-19 16:54 35.584860 -115.773874 43 9236ft 141kts
23-May-19 16:54 35.610025 -115.747836 41 9904ft 142kts
23-May-19 16:55 35.640840 -115.715889 40 10502ft 155kts
23-May-19 16:57 35.681541 -115.672239 46 10500ft 170kts
23-May-19 16:57 35.709100 -115.636985 46 10494ft 172kts
23-May-19 16:58 35.742345 -115.594431 46 10490ft 172kts
23-May-19 16:59 35.775738 -115.551691 46 10488ft 173kts
23-May-19 17:00 35.809090 -115.508881 46 10492ft 173kts
23-May-19 17:01 35.842372 -115.466136 46 10494ft 172kts
23-May-19 17:02 35.875645 -115.423348 47 10489ft 173kts
23-May-19 17:03 35.909082 -115.380293 46 10491ft 173kts
23-May-19 17:04 35.942467 -115.337247 46 10494ft 173kts
23-May-19 17:05 35.975888 -115.294120 46 10497ft 174kts
23-May-19 17:06 36.009446 -115.250831 46 10480ft 176kts
23-May-19 17:07 36.043529 -115.206747 46 10476ft 178kts
23-May-19 17:08 36.077843 -115.162276 46 10460ft 178kts
23-May-19 17:09 36.115084 -115.115126 46 9415ft 196kts
23-May-19 17:10 36.152955 -115.067067 47 8512ft 188kts
23-May-19 17:11 36.187890 -115.022984 47 8467ft 175kts
23-May-19 17:12 36.221677 -114.980128 47 8469ft 173kts
23-May-19 17:13 36.255572 -114.937078 47 8293ft 182kts
23-May-19 17:14 36.291738 -114.891093 47 7506ft 187kts
23-May-19 17:15 36.335012 -114.869441 6 7807ft 154kts
23-May-19 17:16 36.376343 -114.859081 10 8453ft 155kts
23-May-19 17:17 36.421442 -114.845714 11 8477ft 173kts
23-May-19 17:18 36.468362 -114.831400 11 8475ft 174kts
23-May-19 17:19 36.519776 -114.815721 11 8477ft 203kts
23-May-19 17:20 36.575773 -114.798500 12 8471ft 208kts
23-May-19 17:21 36.614670 -114.786534 11 8479ft 208kts
23-May-19 17:22 36.670905 -114.769211 11 8485ft 208kts
23-May-19 17:23 36.727315 -114.751826 11 8488ft 209kts
23-May-19 17:24 36.783634 -114.734466 11 8486ft 208kts
23-May-19 17:25 36.840140 -114.716966 11 8487ft 208kts
23-May-19 17:26 36.896442 -114.699527 11 8489ft 208kts
23-May-19 17:27 36.952779 -114.682082 11 8490ft 208kts
23-May-19 17:28 37.008987 -114.664643 11 8507ft 208kts
23-May-19 17:29 37.065259 -114.647139 11 8507ft 208kts
23-May-19 17:30 37.121657 -114.629562 11 8498ft 209kts
23-May-19 17:31 37.177920 -114.612007 11 8498ft 208kts
23-May-19 17:32 37.234307 -114.594372 11 8498ft 208kts
23-May-19 17:33 37.290704 -114.576722 11 8318ft 215kts
23-May-19 17:34 37.350512 -114.557902 11 7372ft 212kts
23-May-19 17:35 37.402999 -114.541457 11 8055ft 200kts
23-May-19 17:36 37.458726 -114.548866 348 8005ft 203kts
23-May-19 17:37 37.514879 -114.558230 348 8003ft 203kts
23-May-19 17:38 37.570952 -114.563252 22 7992ft 208kts
23-May-19 17:39 37.614172 -114.515394 52 8000ft 206kts
23-May-19 17:40 37.646545 -114.464323 48 7544ft 179kts
23-May-19 17:41 37.685028 -114.427110 9 6146ft 175kts
23-May-19 17:42 37.731720 -114.422946 358 5789ft 162kts
23-May-19 17:43 37.769231 -114.423421 355 5243ft 109kts
23-May-19 17:44 37.791235 -114.421329 3 4832ft 35kts
23-May-19 17:45 37.792921 -114.420081 342 4832ft 0kts
23-May-19 17:46 37.792921 -114.420081 342 4832ft 0kts
23-May-19 17:47 37.792921 -114.420081 342 4832ft 0kts
23-May-19 17:48 37.792921 -114.420081 342 4832ft 0kts
23-May-19 17:49 37.792921 -114.420081 342 4832ft 0kts
23-May-19 17:50 37.792921 -114.420081 342 4832ft 0kts
23-May-19 17:51 37.792921 -114.420081 342 4832ft 0kts
23-May-19 17:52 37.792921 -114.420081 342 4832ft 0kts
23-May-19 17:53 37.792921 -114.420081 342 4832ft 0kts
23-May-19 17:54 37.792921 -114.420081 342 4832ft 0kts

Navigation Log

Ident Type
Flight plan parsing failed, navigation log unavailable